sensor_id;sensor_type;location;lat;lon;timestamp;P1;durP1;ratioP1;P2;durP2;ratioP2
43449;SDS011;29041;42.266;23.110;2023-03-20T00:00:57;15.63;;;6.65;;
43449;SDS011;29041;42.266;23.110;2023-03-20T00:03:44;12.95;;;5.65;;
43449;SDS011;29041;42.266;23.110;2023-03-20T00:06:33;9.43;;;5.38;;
43449;SDS011;29041;42.266;23.110;2023-03-20T00:09:20;12.05;;;5.25;;
43449;SDS011;29041;42.266;23.110;2023-03-20T00:12:08;12.00;;;5.25;;
43449;SDS011;29041;42.266;23.110;2023-03-20T00:14:55;9.93;;;5.25;;
43449;SDS011;29041;42.266;23.110;2023-03-20T00:17:42;8.88;;;5.10;;
43449;SDS011;29041;42.266;23.110;2023-03-20T00:20:29;11.07;;;5.03;;
43449;SDS011;29041;42.266;23.110;2023-03-20T00:23:19;7.80;;;4.75;;
43449;SDS011;29041;42.266;23.110;2023-03-20T00:26:07;13.90;;;5.10;;
43449;SDS011;29041;42.266;23.110;2023-03-20T00:28:55;11.02;;;4.78;;
43449;SDS011;29041;42.266;23.110;2023-03-20T00:31:42;11.00;;;5.55;;
43449;SDS011;29041;42.266;23.110;2023-03-20T00:34:32;10.02;;;4.70;;
43449;SDS011;29041;42.266;23.110;2023-03-20T00:37:19;12.18;;;4.88;;
43449;SDS011;29041;42.266;23.110;2023-03-20T00:40:17;9.50;;;4.50;;
43449;SDS011;29041;42.266;23.110;2023-03-20T00:43:05;9.45;;;5.65;;
43449;SDS011;29041;42.266;23.110;2023-03-20T00:45:52;6.50;;;3.65;;
43449;SDS011;29041;42.266;23.110;2023-03-20T00:48:39;9.80;;;4.30;;
43449;SDS011;29041;42.266;23.110;2023-03-20T00:51:27;6.75;;;3.58;;
43449;SDS011;29041;42.266;23.110;2023-03-20T00:54:15;7.13;;;4.50;;
43449;SDS011;29041;42.266;23.110;2023-03-20T00:57:08;11.35;;;5.10;;
43449;SDS011;29041;42.266;23.110;2023-03-20T00:59:58;10.70;;;5.65;;
43449;SDS011;29041;42.266;23.110;2023-03-20T01:02:46;10.20;;;5.03;;
43449;SDS011;29041;42.266;23.110;2023-03-20T01:05:33;9.98;;;4.93;;
43449;SDS011;29041;42.266;23.110;2023-03-20T01:08:22;12.25;;;4.70;;
43449;SDS011;29041;42.266;23.110;2023-03-20T01:11:09;10.93;;;5.47;;
43449;SDS011;29041;42.266;23.110;2023-03-20T01:13:59;14.35;;;5.07;;
43449;SDS011;29041;42.266;23.110;2023-03-20T01:16:46;12.45;;;6.63;;
43449;SDS011;29041;42.266;23.110;2023-03-20T01:19:35;10.95;;;4.95;;
43449;SDS011;29041;42.266;23.110;2023-03-20T01:22:23;10.07;;;4.55;;
43449;SDS011;29041;42.266;23.110;2023-03-20T01:25:10;14.80;;;5.28;;
43449;SDS011;29041;42.266;23.110;2023-03-20T01:27:56;11.75;;;4.32;;
43449;SDS011;29041;42.266;23.110;2023-03-20T01:30:48;8.20;;;4.07;;
43449;SDS011;29041;42.266;23.110;2023-03-20T01:33:35;10.75;;;4.60;;
43449;SDS011;29041;42.266;23.110;2023-03-20T01:36:22;9.65;;;4.68;;
43449;SDS011;29041;42.266;23.110;2023-03-20T01:39:09;10.27;;;5.72;;
43449;SDS011;29041;42.266;23.110;2023-03-20T01:41:56;7.75;;;3.85;;
43449;SDS011;29041;42.266;23.110;2023-03-20T01:44:51;9.57;;;4.38;;
43449;SDS011;29041;42.266;23.110;2023-03-20T01:47:39;8.07;;;4.07;;
43449;SDS011;29041;42.266;23.110;2023-03-20T01:50:29;6.78;;;4.00;;
43449;SDS011;29041;42.266;23.110;2023-03-20T01:53:17;9.77;;;5.20;;
43449;SDS011;29041;42.266;23.110;2023-03-20T01:56:05;6.88;;;4.10;;
43449;SDS011;29041;42.266;23.110;2023-03-20T01:58:53;6.38;;;4.20;;
43449;SDS011;29041;42.266;23.110;2023-03-20T02:01:43;6.45;;;4.30;;
43449;SDS011;29041;42.266;23.110;2023-03-20T02:04:33;7.47;;;4.03;;
43449;SDS011;29041;42.266;23.110;2023-03-20T02:07:20;8.13;;;4.30;;
43449;SDS011;29041;42.266;23.110;2023-03-20T02:10:12;9.98;;;4.00;;
43449;SDS011;29041;42.266;23.110;2023-03-20T02:13:00;7.88;;;4.65;;
43449;SDS011;29041;42.266;23.110;2023-03-20T02:15:53;6.68;;;4.25;;
43449;SDS011;29041;42.266;23.110;2023-03-20T02:18:40;6.47;;;3.83;;
43449;SDS011;29041;42.266;23.110;2023-03-20T02:24:55;6.60;;;3.50;;
43449;SDS011;29041;42.266;23.110;2023-03-20T02:27:55;9.70;;;3.95;;
43449;SDS011;29041;42.266;23.110;2023-03-20T02:31:00;9.23;;;4.13;;
43449;SDS011;29041;42.266;23.110;2023-03-20T02:34:09;8.90;;;4.32;;
43449;SDS011;29041;42.266;23.110;2023-03-20T02:40:18;8.82;;;4.18;;
43449;SDS011;29041;42.266;23.110;2023-03-20T02:43:08;12.67;;;4.50;;
43449;SDS011;29041;42.266;23.110;2023-03-20T02:45:58;8.82;;;4.55;;
43449;SDS011;29041;42.266;23.110;2023-03-20T02:48:51;7.53;;;4.28;;
43449;SDS011;29041;42.266;23.110;2023-03-20T02:51:40;8.73;;;4.80;;
43449;SDS011;29041;42.266;23.110;2023-03-20T02:54:31;8.50;;;4.80;;
43449;SDS011;29041;42.266;23.110;2023-03-20T02:57:22;9.00;;;4.07;;
43449;SDS011;29041;42.266;23.110;2023-03-20T03:00:11;13.40;;;4.80;;
43449;SDS011;29041;42.266;23.110;2023-03-20T03:03:00;8.27;;;3.58;;
43449;SDS011;29041;42.266;23.110;2023-03-20T03:05:52;10.32;;;4.45;;
43449;SDS011;29041;42.266;23.110;2023-03-20T03:08:42;12.63;;;4.93;;
43449;SDS011;29041;42.266;23.110;2023-03-20T03:11:30;11.30;;;5.13;;
43449;SDS011;29041;42.266;23.110;2023-03-20T03:14:20;20.55;;;5.63;;
43449;SDS011;29041;42.266;23.110;2023-03-20T03:17:10;13.45;;;4.35;;
43449;SDS011;29041;42.266;23.110;2023-03-20T03:19:58;15.02;;;4.93;;
43449;SDS011;29041;42.266;23.110;2023-03-20T03:22:47;10.55;;;4.82;;
43449;SDS011;29041;42.266;23.110;2023-03-20T03:25:35;7.57;;;4.10;;
43449;SDS011;29041;42.266;23.110;2023-03-20T03:28:25;14.13;;;5.07;;
43449;SDS011;29041;42.266;23.110;2023-03-20T03:31:16;12.65;;;4.22;;
43449;SDS011;29041;42.266;23.110;2023-03-20T03:34:03;12.50;;;4.68;;
43449;SDS011;29041;42.266;23.110;2023-03-20T03:36:52;11.68;;;3.75;;
43449;SDS011;29041;42.266;23.110;2023-03-20T03:39:40;9.10;;;3.13;;
43449;SDS011;29041;42.266;23.110;2023-03-20T03:42:31;6.75;;;3.72;;
43449;SDS011;29041;42.266;23.110;2023-03-20T03:45:21;11.50;;;4.13;;
43449;SDS011;29041;42.266;23.110;2023-03-20T03:48:13;9.65;;;4.50;;
43449;SDS011;29041;42.266;23.110;2023-03-20T03:51:02;6.47;;;3.50;;
43449;SDS011;29041;42.266;23.110;2023-03-20T03:53:52;7.75;;;3.72;;
43449;SDS011;29041;42.266;23.110;2023-03-20T03:56:40;7.93;;;3.60;;
43449;SDS011;29041;42.266;23.110;2023-03-20T03:59:29;5.32;;;3.53;;
43449;SDS011;29041;42.266;23.110;2023-03-20T04:02:23;6.22;;;4.47;;
43449;SDS011;29041;42.266;23.110;2023-03-20T04:05:12;8.80;;;4.32;;
43449;SDS011;29041;42.266;23.110;2023-03-20T04:08:00;11.48;;;4.63;;
43449;SDS011;29041;42.266;23.110;2023-03-20T04:10:47;11.15;;;5.68;;
43449;SDS011;29041;42.266;23.110;2023-03-20T04:13:34;11.73;;;5.03;;
43449;SDS011;29041;42.266;23.110;2023-03-20T04:16:22;6.68;;;3.53;;
43449;SDS011;29041;42.266;23.110;2023-03-20T04:19:09;10.80;;;4.35;;
43449;SDS011;29041;42.266;23.110;2023-03-20T04:21:58;8.32;;;4.75;;
43449;SDS011;29041;42.266;23.110;2023-03-20T04:24:44;7.60;;;4.07;;
43449;SDS011;29041;42.266;23.110;2023-03-20T04:27:32;12.85;;;5.72;;
43449;SDS011;29041;42.266;23.110;2023-03-20T04:30:20;10.15;;;5.22;;
43449;SDS011;29041;42.266;23.110;2023-03-20T04:33:07;13.13;;;5.07;;
43449;SDS011;29041;42.266;23.110;2023-03-20T04:35:54;20.08;;;6.18;;
43449;SDS011;29041;42.266;23.110;2023-03-20T04:38:43;10.98;;;4.55;;
43449;SDS011;29041;42.266;23.110;2023-03-20T04:41:30;12.85;;;4.53;;
43449;SDS011;29041;42.266;23.110;2023-03-20T04:44:16;9.15;;;4.90;;
43449;SDS011;29041;42.266;23.110;2023-03-20T04:47:03;6.70;;;4.07;;
43449;SDS011;29041;42.266;23.110;2023-03-20T04:49:51;8.98;;;4.63;;
43449;SDS011;29041;42.266;23.110;2023-03-20T04:52:40;11.25;;;5.07;;
43449;SDS011;29041;42.266;23.110;2023-03-20T04:55:28;9.10;;;4.53;;
43449;SDS011;29041;42.266;23.110;2023-03-20T04:58:16;12.35;;;5.68;;
43449;SDS011;29041;42.266;23.110;2023-03-20T05:01:03;9.93;;;5.15;;
43449;SDS011;29041;42.266;23.110;2023-03-20T05:03:50;10.13;;;5.32;;
43449;SDS011;29041;42.266;23.110;2023-03-20T05:06:37;15.25;;;4.38;;
43449;SDS011;29041;42.266;23.110;2023-03-20T05:09:24;13.23;;;5.38;;
43449;SDS011;29041;42.266;23.110;2023-03-20T05:12:13;8.43;;;4.68;;
43449;SDS011;29041;42.266;23.110;2023-03-20T05:15:00;17.92;;;5.90;;
43449;SDS011;29041;42.266;23.110;2023-03-20T05:17:47;10.70;;;4.45;;
43449;SDS011;29041;42.266;23.110;2023-03-20T05:20:34;10.02;;;5.03;;
43449;SDS011;29041;42.266;23.110;2023-03-20T05:23:20;7.93;;;5.30;;
43449;SDS011;29041;42.266;23.110;2023-03-20T05:26:08;15.25;;;5.78;;
43449;SDS011;29041;42.266;23.110;2023-03-20T05:28:56;13.40;;;6.57;;
43449;SDS011;29041;42.266;23.110;2023-03-20T05:31:43;15.80;;;6.97;;
43449;SDS011;29041;42.266;23.110;2023-03-20T05:34:30;19.08;;;6.45;;
43449;SDS011;29041;42.266;23.110;2023-03-20T05:37:17;12.52;;;6.55;;
43449;SDS011;29041;42.266;23.110;2023-03-20T05:40:04;7.65;;;5.35;;
43449;SDS011;29041;42.266;23.110;2023-03-20T05:42:51;11.50;;;6.88;;
43449;SDS011;29041;42.266;23.110;2023-03-20T05:45:40;12.27;;;8.00;;
43449;SDS011;29041;42.266;23.110;2023-03-20T05:48:27;12.63;;;5.93;;
43449;SDS011;29041;42.266;23.110;2023-03-20T05:51:14;14.27;;;6.43;;
43449;SDS011;29041;42.266;23.110;2023-03-20T05:54:01;20.33;;;7.00;;
43449;SDS011;29041;42.266;23.110;2023-03-20T05:56:48;17.50;;;9.02;;
43449;SDS011;29041;42.266;23.110;2023-03-20T05:59:35;16.17;;;7.72;;
43449;SDS011;29041;42.266;23.110;2023-03-20T06:02:23;12.80;;;6.53;;
43449;SDS011;29041;42.266;23.110;2023-03-20T06:05:10;10.02;;;5.20;;
43449;SDS011;29041;42.266;23.110;2023-03-20T06:07:57;10.98;;;7.03;;
43449;SDS011;29041;42.266;23.110;2023-03-20T06:10:44;15.13;;;6.55;;
43449;SDS011;29041;42.266;23.110;2023-03-20T06:13:31;11.02;;;6.28;;
43449;SDS011;29041;42.266;23.110;2023-03-20T06:16:18;9.98;;;6.13;;
43449;SDS011;29041;42.266;23.110;2023-03-20T06:25:32;12.10;;;6.90;;
43449;SDS011;29041;42.266;23.110;2023-03-20T06:28:20;18.55;;;9.15;;
43449;SDS011;29041;42.266;23.110;2023-03-20T06:31:17;11.60;;;6.60;;
43449;SDS011;29041;42.266;23.110;2023-03-20T06:34:12;15.65;;;7.15;;
43449;SDS011;29041;42.266;23.110;2023-03-20T06:37:03;15.85;;;8.43;;
43449;SDS011;29041;42.266;23.110;2023-03-20T06:39:52;13.52;;;7.10;;
43449;SDS011;29041;42.266;23.110;2023-03-20T06:42:45;14.20;;;7.53;;
43449;SDS011;29041;42.266;23.110;2023-03-20T06:45:33;14.10;;;7.70;;
43449;SDS011;29041;42.266;23.110;2023-03-20T06:48:22;20.98;;;9.40;;
43449;SDS011;29041;42.266;23.110;2023-03-20T06:51:12;20.80;;;10.32;;
43449;SDS011;29041;42.266;23.110;2023-03-20T06:54:10;12.98;;;7.60;;
43449;SDS011;29041;42.266;23.110;2023-03-20T06:57:01;14.63;;;8.80;;
43449;SDS011;29041;42.266;23.110;2023-03-20T06:59:51;13.27;;;8.23;;
43449;SDS011;29041;42.266;23.110;2023-03-20T07:02:38;13.80;;;7.07;;
43449;SDS011;29041;42.266;23.110;2023-03-20T07:05:25;12.63;;;6.22;;
43449;SDS011;29041;42.266;23.110;2023-03-20T07:08:12;17.23;;;7.82;;
43449;SDS011;29041;42.266;23.110;2023-03-20T07:10:59;17.88;;;8.45;;
43449;SDS011;29041;42.266;23.110;2023-03-20T07:13:46;13.20;;;7.22;;
43449;SDS011;29041;42.266;23.110;2023-03-20T07:16:35;11.27;;;5.90;;
43449;SDS011;29041;42.266;23.110;2023-03-20T07:19:22;12.93;;;6.68;;
43449;SDS011;29041;42.266;23.110;2023-03-20T07:22:14;16.60;;;8.05;;
43449;SDS011;29041;42.266;23.110;2023-03-20T07:25:04;13.88;;;7.43;;
43449;SDS011;29041;42.266;23.110;2023-03-20T07:27:51;13.32;;;5.47;;
43449;SDS011;29041;42.266;23.110;2023-03-20T07:30:38;20.63;;;6.53;;
43449;SDS011;29041;42.266;23.110;2023-03-20T07:33:27;19.95;;;6.43;;
43449;SDS011;29041;42.266;23.110;2023-03-20T07:36:14;15.15;;;5.82;;
43449;SDS011;29041;42.266;23.110;2023-03-20T07:39:01;14.80;;;5.72;;
43449;SDS011;29041;42.266;23.110;2023-03-20T07:41:48;15.60;;;5.80;;
43449;SDS011;29041;42.266;23.110;2023-03-20T07:44:35;15.00;;;5.72;;
43449;SDS011;29041;42.266;23.110;2023-03-20T07:47:22;13.45;;;4.65;;
43449;SDS011;29041;42.266;23.110;2023-03-20T07:50:11;17.02;;;5.50;;
43449;SDS011;29041;42.266;23.110;2023-03-20T07:52:58;14.57;;;6.88;;
43449;SDS011;29041;42.266;23.110;2023-03-20T07:55:45;13.00;;;5.13;;
43449;SDS011;29041;42.266;23.110;2023-03-20T07:58:32;10.18;;;4.40;;
43449;SDS011;29041;42.266;23.110;2023-03-20T08:01:19;10.13;;;4.78;;
43449;SDS011;29041;42.266;23.110;2023-03-20T08:04:06;8.73;;;4.00;;
43449;SDS011;29041;42.266;23.110;2023-03-20T08:06:54;16.10;;;5.25;;
43449;SDS011;29041;42.266;23.110;2023-03-20T08:09:41;8.82;;;3.65;;
43449;SDS011;29041;42.266;23.110;2023-03-20T08:12:28;8.70;;;4.30;;
43449;SDS011;29041;42.266;23.110;2023-03-20T08:15:15;11.57;;;4.13;;
43449;SDS011;29041;42.266;23.110;2023-03-20T08:18:01;5.82;;;2.80;;
43449;SDS011;29041;42.266;23.110;2023-03-20T08:20:48;8.60;;;3.45;;
43449;SDS011;29041;42.266;23.110;2023-03-20T08:23:37;6.18;;;3.45;;
43449;SDS011;29041;42.266;23.110;2023-03-20T08:26:24;9.15;;;4.15;;
43449;SDS011;29041;42.266;23.110;2023-03-20T08:29:11;6.85;;;3.40;;
43449;SDS011;29041;42.266;23.110;2023-03-20T08:31:58;6.68;;;3.60;;
43449;SDS011;29041;42.266;23.110;2023-03-20T08:34:44;3.67;;;3.03;;
43449;SDS011;29041;42.266;23.110;2023-03-20T08:37:31;6.50;;;2.90;;
43449;SDS011;29041;42.266;23.110;2023-03-20T08:40:23;7.93;;;3.13;;
43449;SDS011;29041;42.266;23.110;2023-03-20T08:43:10;3.28;;;1.42;;
43449;SDS011;29041;42.266;23.110;2023-03-20T08:45:57;3.10;;;1.95;;
43449;SDS011;29041;42.266;23.110;2023-03-20T08:48:44;2.05;;;1.40;;
43449;SDS011;29041;42.266;23.110;2023-03-20T08:51:31;3.05;;;1.90;;
43449;SDS011;29041;42.266;23.110;2023-03-20T08:54:18;4.32;;;2.10;;
43449;SDS011;29041;42.266;23.110;2023-03-20T08:57:06;7.28;;;3.13;;
43449;SDS011;29041;42.266;23.110;2023-03-20T08:59:53;3.13;;;1.80;;
43449;SDS011;29041;42.266;23.110;2023-03-20T09:02:40;4.65;;;1.88;;
43449;SDS011;29041;42.266;23.110;2023-03-20T09:05:27;4.63;;;2.08;;
43449;SDS011;29041;42.266;23.110;2023-03-20T09:08:14;7.75;;;2.10;;
43449;SDS011;29041;42.266;23.110;2023-03-20T09:11:01;6.30;;;2.08;;
43449;SDS011;29041;42.266;23.110;2023-03-20T09:13:49;4.75;;;2.30;;
43449;SDS011;29041;42.266;23.110;2023-03-20T09:16:36;5.13;;;1.80;;
43449;SDS011;29041;42.266;23.110;2023-03-20T09:19:23;3.22;;;1.65;;
43449;SDS011;29041;42.266;23.110;2023-03-20T09:22:10;2.55;;;1.55;;
43449;SDS011;29041;42.266;23.110;2023-03-20T09:24:58;8.88;;;1.90;;
43449;SDS011;29041;42.266;23.110;2023-03-20T09:27:45;3.45;;;1.65;;
43449;SDS011;29041;42.266;23.110;2023-03-20T09:30:33;4.78;;;2.17;;
43449;SDS011;29041;42.266;23.110;2023-03-20T09:33:20;3.30;;;2.00;;
43449;SDS011;29041;42.266;23.110;2023-03-20T09:36:07;3.65;;;1.27;;
43449;SDS011;29041;42.266;23.110;2023-03-20T09:38:55;2.85;;;1.27;;
43449;SDS011;29041;42.266;23.110;2023-03-20T09:41:45;6.38;;;1.85;;
43449;SDS011;29041;42.266;23.110;2023-03-20T09:44:36;3.88;;;1.92;;
43449;SDS011;29041;42.266;23.110;2023-03-20T09:47:28;2.65;;;1.85;;
43449;SDS011;29041;42.266;23.110;2023-03-20T09:50:22;3.70;;;2.05;;
43449;SDS011;29041;42.266;23.110;2023-03-20T09:53:12;6.50;;;2.60;;
43449;SDS011;29041;42.266;23.110;2023-03-20T09:55:59;3.55;;;2.15;;
43449;SDS011;29041;42.266;23.110;2023-03-20T09:58:47;5.65;;;1.98;;
43449;SDS011;29041;42.266;23.110;2023-03-20T10:01:38;5.80;;;2.25;;
43449;SDS011;29041;42.266;23.110;2023-03-20T10:04:29;6.00;;;2.00;;
43449;SDS011;29041;42.266;23.110;2023-03-20T10:07:16;4.38;;;2.25;;
43449;SDS011;29041;42.266;23.110;2023-03-20T10:10:04;8.48;;;2.83;;
43449;SDS011;29041;42.266;23.110;2023-03-20T10:12:55;4.55;;;2.10;;
43449;SDS011;29041;42.266;23.110;2023-03-20T10:15:46;5.22;;;2.33;;
43449;SDS011;29041;42.266;23.110;2023-03-20T10:18:36;6.88;;;2.20;;
43449;SDS011;29041;42.266;23.110;2023-03-20T10:21:27;3.70;;;1.85;;
43449;SDS011;29041;42.266;23.110;2023-03-20T10:24:16;4.13;;;2.28;;
43449;SDS011;29041;42.266;23.110;2023-03-20T10:27:09;6.57;;;2.50;;
43449;SDS011;29041;42.266;23.110;2023-03-20T10:30:07;4.63;;;1.92;;
43449;SDS011;29041;42.266;23.110;2023-03-20T10:33:03;5.32;;;2.20;;
43449;SDS011;29041;42.266;23.110;2023-03-20T10:38:41;5.63;;;2.47;;
43449;SDS011;29041;42.266;23.110;2023-03-20T10:41:31;2.90;;;2.10;;
43449;SDS011;29041;42.266;23.110;2023-03-20T10:44:20;9.80;;;2.70;;
43449;SDS011;29041;42.266;23.110;2023-03-20T10:47:09;3.72;;;2.90;;
43449;SDS011;29041;42.266;23.110;2023-03-20T10:49:57;5.30;;;3.50;;
43449;SDS011;29041;42.266;23.110;2023-03-20T10:52:47;6.05;;;2.65;;
43449;SDS011;29041;42.266;23.110;2023-03-20T10:55:37;4.13;;;2.35;;
43449;SDS011;29041;42.266;23.110;2023-03-20T10:58:25;5.47;;;2.22;;
43449;SDS011;29041;42.266;23.110;2023-03-20T11:01:12;3.38;;;1.58;;
43449;SDS011;29041;42.266;23.110;2023-03-20T11:04:00;4.18;;;1.98;;
43449;SDS011;29041;42.266;23.110;2023-03-20T11:06:48;4.28;;;2.15;;
43449;SDS011;29041;42.266;23.110;2023-03-20T11:09:38;5.28;;;1.67;;
43449;SDS011;29041;42.266;23.110;2023-03-20T11:12:30;4.18;;;2.10;;
43449;SDS011;29041;42.266;23.110;2023-03-20T11:15:21;4.25;;;2.05;;
43449;SDS011;29041;42.266;23.110;2023-03-20T11:18:09;5.55;;;4.25;;
43449;SDS011;29041;42.266;23.110;2023-03-20T11:20:59;3.03;;;1.95;;
43449;SDS011;29041;42.266;23.110;2023-03-20T11:23:47;3.25;;;1.70;;
43449;SDS011;29041;42.266;23.110;2023-03-20T11:26:34;6.88;;;2.83;;
43449;SDS011;29041;42.266;23.110;2023-03-20T11:29:24;4.03;;;2.60;;
43449;SDS011;29041;42.266;23.110;2023-03-20T11:32:16;2.88;;;1.92;;
43449;SDS011;29041;42.266;23.110;2023-03-20T11:35:09;6.55;;;2.83;;
43449;SDS011;29041;42.266;23.110;2023-03-20T11:38:05;2.75;;;1.80;;
43449;SDS011;29041;42.266;23.110;2023-03-20T11:40:53;8.75;;;2.67;;
43449;SDS011;29041;42.266;23.110;2023-03-20T11:43:41;9.43;;;4.25;;
43449;SDS011;29041;42.266;23.110;2023-03-20T11:46:29;6.72;;;3.03;;
43449;SDS011;29041;42.266;23.110;2023-03-20T11:49:18;5.10;;;2.17;;
43449;SDS011;29041;42.266;23.110;2023-03-20T11:52:10;4.38;;;2.08;;
43449;SDS011;29041;42.266;23.110;2023-03-20T11:54:58;4.35;;;1.77;;
43449;SDS011;29041;42.266;23.110;2023-03-20T11:57:45;5.95;;;1.65;;
43449;SDS011;29041;42.266;23.110;2023-03-20T12:00:34;4.35;;;1.85;;
43449;SDS011;29041;42.266;23.110;2023-03-20T12:03:36;3.08;;;1.65;;
43449;SDS011;29041;42.266;23.110;2023-03-20T12:09:16;3.75;;;1.80;;
43449;SDS011;29041;42.266;23.110;2023-03-20T12:12:11;2.45;;;1.50;;
43449;SDS011;29041;42.266;23.110;2023-03-20T12:15:00;4.35;;;1.27;;
43449;SDS011;29041;42.266;23.110;2023-03-20T12:17:51;3.97;;;1.90;;
43449;SDS011;29041;42.266;23.110;2023-03-20T12:20:42;3.17;;;1.42;;
43449;SDS011;29041;42.266;23.110;2023-03-20T12:23:31;3.78;;;1.95;;
43449;SDS011;29041;42.266;23.110;2023-03-20T12:26:20;3.55;;;1.73;;
43449;SDS011;29041;42.266;23.110;2023-03-20T12:29:13;3.78;;;2.17;;
43449;SDS011;29041;42.266;23.110;2023-03-20T12:32:05;4.22;;;2.03;;
43449;SDS011;29041;42.266;23.110;2023-03-20T12:34:56;2.88;;;1.73;;
43449;SDS011;29041;42.266;23.110;2023-03-20T12:37:46;5.57;;;1.83;;
43449;SDS011;29041;42.266;23.110;2023-03-20T12:40:42;3.72;;;2.15;;
43449;SDS011;29041;42.266;23.110;2023-03-20T12:43:30;4.75;;;2.17;;
43449;SDS011;29041;42.266;23.110;2023-03-20T12:46:22;4.30;;;2.33;;
43449;SDS011;29041;42.266;23.110;2023-03-20T12:49:13;4.43;;;1.92;;
43449;SDS011;29041;42.266;23.110;2023-03-20T12:52:03;4.35;;;2.30;;
43449;SDS011;29041;42.266;23.110;2023-03-20T12:58:07;3.42;;;1.70;;
43449;SDS011;29041;42.266;23.110;2023-03-20T13:00:59;3.30;;;1.67;;
43449;SDS011;29041;42.266;23.110;2023-03-20T13:03:56;3.00;;;1.38;;
43449;SDS011;29041;42.266;23.110;2023-03-20T13:06:50;2.28;;;1.08;;
43449;SDS011;29041;42.266;23.110;2023-03-20T13:09:49;3.05;;;1.27;;
43449;SDS011;29041;42.266;23.110;2023-03-20T13:12:39;3.78;;;1.85;;
43449;SDS011;29041;42.266;23.110;2023-03-20T13:15:34;2.88;;;1.20;;
43449;SDS011;29041;42.266;23.110;2023-03-20T13:18:29;2.30;;;1.30;;
43449;SDS011;29041;42.266;23.110;2023-03-20T13:21:21;2.25;;;0.98;;
43449;SDS011;29041;42.266;23.110;2023-03-20T13:24:15;2.72;;;1.20;;
43449;SDS011;29041;42.266;23.110;2023-03-20T13:27:07;5.90;;;1.58;;
43449;SDS011;29041;42.266;23.110;2023-03-20T13:29:57;2.03;;;1.17;;
43449;SDS011;29041;42.266;23.110;2023-03-20T13:32:49;2.47;;;1.48;;
43449;SDS011;29041;42.266;23.110;2023-03-20T13:35:42;15.60;;;7.57;;
43449;SDS011;29041;42.266;23.110;2023-03-20T13:38:30;2.88;;;1.00;;
43449;SDS011;29041;42.266;23.110;2023-03-20T13:41:18;5.68;;;3.50;;
43449;SDS011;29041;42.266;23.110;2023-03-20T13:44:08;5.05;;;2.88;;
43449;SDS011;29041;42.266;23.110;2023-03-20T13:46:57;5.45;;;2.60;;
43449;SDS011;29041;42.266;23.110;2023-03-20T13:49:48;0.95;;;0.85;;
43449;SDS011;29041;42.266;23.110;2023-03-20T13:52:39;14.68;;;6.68;;
43449;SDS011;29041;42.266;23.110;2023-03-20T13:55:28;36.58;;;21.48;;
43449;SDS011;29041;42.266;23.110;2023-03-20T13:58:22;3.05;;;2.15;;
43449;SDS011;29041;42.266;23.110;2023-03-20T14:01:15;1.88;;;0.82;;
43449;SDS011;29041;42.266;23.110;2023-03-20T14:06:55;0.85;;;0.70;;
43449;SDS011;29041;42.266;23.110;2023-03-20T14:09:42;1.38;;;0.95;;
43449;SDS011;29041;42.266;23.110;2023-03-20T14:12:32;0.70;;;0.50;;
43449;SDS011;29041;42.266;23.110;2023-03-20T14:15:19;1.30;;;0.82;;
43449;SDS011;29041;42.266;23.110;2023-03-20T14:18:10;0.70;;;0.50;;
43449;SDS011;29041;42.266;23.110;2023-03-20T14:20:59;0.80;;;0.40;;
43449;SDS011;29041;42.266;23.110;2023-03-20T14:23:48;2.10;;;0.45;;
43449;SDS011;29041;42.266;23.110;2023-03-20T14:26:36;0.57;;;0.22;;
43449;SDS011;29041;42.266;23.110;2023-03-20T14:29:34;0.50;;;0.40;;
43449;SDS011;29041;42.266;23.110;2023-03-20T14:32:31;0.60;;;0.28;;
43449;SDS011;29041;42.266;23.110;2023-03-20T14:35:22;0.93;;;0.47;;
43449;SDS011;29041;42.266;23.110;2023-03-20T14:38:19;4.30;;;0.50;;
43449;SDS011;29041;42.266;23.110;2023-03-20T14:41:11;0.20;;;0.20;;
43449;SDS011;29041;42.266;23.110;2023-03-20T14:44:04;1.27;;;0.70;;
43449;SDS011;29041;42.266;23.110;2023-03-20T14:46:53;0.82;;;0.60;;
43449;SDS011;29041;42.266;23.110;2023-03-20T14:49:47;0.90;;;0.60;;
43449;SDS011;29041;42.266;23.110;2023-03-20T14:52:48;0.60;;;0.47;;
43449;SDS011;29041;42.266;23.110;2023-03-20T14:58:54;0.32;;;0.17;;
43449;SDS011;29041;42.266;23.110;2023-03-20T15:01:47;0.40;;;0.30;;
43449;SDS011;29041;42.266;23.110;2023-03-20T15:04:39;0.20;;;0.20;;
43449;SDS011;29041;42.266;23.110;2023-03-20T15:07:28;0.88;;;0.50;;
43449;SDS011;29041;42.266;23.110;2023-03-20T15:10:15;0.77;;;0.40;;
43449;SDS011;29041;42.266;23.110;2023-03-20T15:13:03;2.95;;;1.63;;
43449;SDS011;29041;42.266;23.110;2023-03-20T15:15:52;3.22;;;1.90;;
43449;SDS011;29041;42.266;23.110;2023-03-20T15:18:40;4.25;;;2.47;;
43449;SDS011;29041;42.266;23.110;2023-03-20T15:21:28;3.13;;;1.88;;
43449;SDS011;29041;42.266;23.110;2023-03-20T15:24:17;3.80;;;2.03;;
43449;SDS011;29041;42.266;23.110;2023-03-20T15:27:04;3.00;;;1.85;;
43449;SDS011;29041;42.266;23.110;2023-03-20T15:29:51;4.43;;;1.33;;
43449;SDS011;29041;42.266;23.110;2023-03-20T15:32:41;4.55;;;1.55;;
43449;SDS011;29041;42.266;23.110;2023-03-20T15:35:28;5.30;;;1.23;;
43449;SDS011;29041;42.266;23.110;2023-03-20T15:38:15;5.50;;;2.03;;
43449;SDS011;29041;42.266;23.110;2023-03-20T15:41:03;4.00;;;1.77;;
43449;SDS011;29041;42.266;23.110;2023-03-20T15:43:50;3.13;;;1.17;;
43449;SDS011;29041;42.266;23.110;2023-03-20T15:46:37;4.15;;;1.80;;
43449;SDS011;29041;42.266;23.110;2023-03-20T15:49:26;2.90;;;1.60;;
43449;SDS011;29041;42.266;23.110;2023-03-20T15:52:21;4.07;;;1.20;;
43449;SDS011;29041;42.266;23.110;2023-03-20T15:55:11;5.65;;;1.90;;
43449;SDS011;29041;42.266;23.110;2023-03-20T15:58:00;9.00;;;3.75;;
43449;SDS011;29041;42.266;23.110;2023-03-20T16:00:47;11.70;;;5.22;;
43449;SDS011;29041;42.266;23.110;2023-03-20T16:03:35;8.52;;;3.63;;
43449;SDS011;29041;42.266;23.110;2023-03-20T16:06:24;10.95;;;4.20;;
43449;SDS011;29041;42.266;23.110;2023-03-20T16:09:12;9.10;;;6.10;;
43449;SDS011;29041;42.266;23.110;2023-03-20T16:12:00;10.25;;;5.80;;
43449;SDS011;29041;42.266;23.110;2023-03-20T16:14:48;16.63;;;5.60;;
43449;SDS011;29041;42.266;23.110;2023-03-20T16:17:35;7.57;;;2.90;;
43449;SDS011;29041;42.266;23.110;2023-03-20T16:20:22;5.65;;;2.03;;
43449;SDS011;29041;42.266;23.110;2023-03-20T16:23:16;4.85;;;2.58;;
43449;SDS011;29041;42.266;23.110;2023-03-20T16:26:06;5.70;;;3.10;;
43449;SDS011;29041;42.266;23.110;2023-03-20T16:28:54;5.20;;;1.98;;
43449;SDS011;29041;42.266;23.110;2023-03-20T16:31:43;6.20;;;2.30;;
43449;SDS011;29041;42.266;23.110;2023-03-20T16:34:32;3.45;;;2.38;;
43449;SDS011;29041;42.266;23.110;2023-03-20T16:37:21;10.77;;;4.43;;
43449;SDS011;29041;42.266;23.110;2023-03-20T16:40:13;13.27;;;4.38;;
43449;SDS011;29041;42.266;23.110;2023-03-20T16:43:10;19.02;;;8.40;;
43449;SDS011;29041;42.266;23.110;2023-03-20T16:46:02;15.60;;;6.97;;
43449;SDS011;29041;42.266;23.110;2023-03-20T16:48:51;12.57;;;6.30;;
43449;SDS011;29041;42.266;23.110;2023-03-20T16:51:38;19.27;;;7.45;;
43449;SDS011;29041;42.266;23.110;2023-03-20T16:54:28;12.63;;;3.63;;
43449;SDS011;29041;42.266;23.110;2023-03-20T16:57:17;10.55;;;4.13;;
43449;SDS011;29041;42.266;23.110;2023-03-20T17:00:06;8.10;;;4.05;;
43449;SDS011;29041;42.266;23.110;2023-03-20T17:02:58;9.32;;;4.15;;
43449;SDS011;29041;42.266;23.110;2023-03-20T17:05:46;7.28;;;4.45;;
43449;SDS011;29041;42.266;23.110;2023-03-20T17:08:34;11.85;;;4.28;;